createdAt,value
2022-10-06T00:00:06.012Z,13.00
2022-10-06T00:03:28.232Z,15.50
2022-10-06T00:06:30.169Z,14.00
2022-10-06T00:09:32.636Z,13.75
2022-10-06T00:12:42.745Z,14.00
2022-10-06T00:15:45.008Z,13.00
2022-10-06T00:18:47.443Z,13.00
2022-10-06T00:21:49.723Z,12.75
2022-10-06T00:24:51.750Z,12.25
2022-10-06T00:27:54.827Z,12.00
2022-10-06T00:30:56.935Z,13.75
2022-10-06T00:33:59.127Z,13.00
2022-10-06T00:37:01.147Z,12.50
2022-10-06T00:40:09.176Z,14.25
2022-10-06T00:43:39.953Z,13.50
2022-10-06T00:46:51.019Z,12.00
2022-10-06T00:49:55.119Z,12.25
2022-10-06T00:52:57.854Z,11.25
2022-10-06T00:56:00.128Z,13.75
2022-10-06T00:59:02.366Z,14.25
2022-10-06T01:02:21.030Z,13.50
2022-10-06T01:05:28.618Z,11.00
2022-10-06T01:08:32.026Z,13.00
2022-10-06T01:11:36.220Z,12.00
2022-10-06T01:14:39.324Z,14.00
2022-10-06T01:17:59.178Z,14.00
2022-10-06T01:21:07.466Z,13.75
2022-10-06T01:24:09.991Z,11.75
2022-10-06T01:27:13.427Z,14.00
2022-10-06T01:30:17.842Z,12.00
2022-10-06T01:33:21.335Z,12.75
2022-10-06T01:36:24.377Z,15.00
2022-10-06T01:39:26.992Z,13.00
2022-10-06T01:42:32.229Z,13.00
2022-10-06T01:45:34.620Z,14.00
2022-10-06T01:48:37.130Z,10.75
2022-10-06T01:51:39.104Z,16.25
2022-10-06T01:54:41.347Z,13.50
2022-10-06T01:57:43.744Z,13.00
2022-10-06T02:00:47.860Z,12.75
2022-10-06T02:03:50.105Z,12.50
2022-10-06T02:06:55.385Z,13.00
2022-10-06T02:09:57.460Z,12.00
2022-10-06T02:12:59.827Z,13.00
2022-10-06T02:16:02.409Z,13.00
2022-10-06T02:19:04.700Z,13.00
2022-10-06T02:22:06.713Z,12.00
2022-10-06T02:25:09.439Z,12.00
2022-10-06T02:28:12.360Z,12.75
2022-10-06T02:31:15.006Z,12.00
2022-10-06T02:34:17.295Z,12.00
2022-10-06T02:37:19.664Z,11.50
2022-10-06T02:40:22.061Z,11.75
2022-10-06T02:43:24.601Z,11.00
2022-10-06T02:46:27.008Z,12.50
2022-10-06T02:49:30.018Z,12.25
2022-10-06T02:52:34.611Z,12.75
2022-10-06T02:55:36.982Z,10.50
2022-10-06T02:58:42.989Z,14.75
2022-10-06T03:01:48.820Z,12.00
2022-10-06T03:04:53.234Z,12.50
2022-10-06T03:07:55.798Z,12.75
2022-10-06T03:11:02.566Z,11.00
2022-10-06T03:14:05.585Z,10.25
2022-10-06T03:17:11.158Z,12.00
2022-10-06T03:20:20.214Z,10.00
2022-10-06T03:23:22.341Z,11.00
2022-10-06T03:26:33.769Z,10.75
2022-10-06T03:29:35.915Z,12.25
2022-10-06T03:32:39.420Z,12.00
2022-10-06T03:35:43.768Z,11.00
2022-10-06T03:38:46.510Z,11.50
2022-10-06T03:41:48.729Z,12.00
2022-10-06T03:44:50.949Z,10.75
2022-10-06T03:47:55.454Z,11.75
2022-10-06T03:50:59.602Z,11.00
2022-10-06T03:54:03.139Z,11.00
2022-10-06T03:57:07.464Z,11.75
2022-10-06T04:00:12.490Z,11.50
2022-10-06T04:03:19.541Z,12.00
2022-10-06T04:06:22.950Z,11.75
2022-10-06T04:09:25.281Z,11.25
2022-10-06T04:12:27.428Z,11.00
2022-10-06T04:15:31.242Z,12.25
2022-10-06T04:18:33.727Z,11.50
2022-10-06T04:21:37.217Z,11.00
2022-10-06T04:24:41.373Z,12.75
2022-10-06T04:27:45.187Z,9.00
2022-10-06T04:30:57.662Z,11.00
2022-10-06T04:34:01.341Z,11.00
2022-10-06T04:37:04.608Z,10.75
2022-10-06T04:40:08.332Z,10.50
2022-10-06T04:43:11.883Z,11.50
2022-10-06T04:46:38.000Z,11.75
2022-10-06T04:49:37.461Z,12.25
2022-10-06T04:52:40.394Z,7.50
2022-10-06T04:55:42.420Z,11.00
2022-10-06T04:58:48.178Z,11.50
2022-10-06T05:01:51.147Z,10.25
2022-10-06T05:04:53.620Z,9.50
2022-10-06T05:07:57.973Z,11.25
2022-10-06T05:11:06.280Z,12.50
2022-10-06T05:14:08.581Z,10.50
2022-10-06T05:17:14.114Z,12.00
2022-10-06T05:20:16.551Z,12.00
2022-10-06T05:23:19.069Z,13.00
2022-10-06T05:26:24.680Z,10.25
2022-10-06T05:29:28.772Z,13.25
2022-10-06T05:32:35.807Z,12.00
2022-10-06T05:35:39.108Z,11.25
2022-10-06T05:38:42.267Z,12.75
2022-10-06T05:41:44.707Z,11.00
2022-10-06T05:44:48.492Z,11.25
2022-10-06T05:47:51.965Z,14.25
2022-10-06T05:51:02.408Z,11.00
2022-10-06T05:54:05.703Z,11.00
2022-10-06T05:57:08.580Z,12.50
2022-10-06T06:00:11.604Z,11.00
2022-10-06T06:03:14.978Z,11.50
2022-10-06T06:06:39.232Z,12.75
2022-10-06T06:09:45.144Z,12.00
2022-10-06T06:12:47.851Z,12.50
2022-10-06T06:16:13.909Z,11.50
2022-10-06T06:19:16.688Z,12.75
2022-10-06T06:22:20.790Z,13.00
2022-10-06T06:25:25.136Z,12.00
2022-10-06T06:28:31.394Z,12.50
2022-10-06T06:31:36.422Z,10.00
2022-10-06T06:34:38.510Z,12.50
2022-10-06T06:37:42.690Z,13.00
2022-10-06T06:40:44.696Z,12.50
2022-10-06T06:43:50.075Z,11.25
2022-10-06T06:47:04.754Z,12.00
2022-10-06T06:50:10.516Z,12.50
2022-10-06T06:53:16.216Z,12.00
2022-10-06T06:56:23.899Z,12.50
2022-10-06T06:59:26.169Z,12.00
2022-10-06T07:02:30.882Z,10.00
2022-10-06T07:05:33.736Z,12.25
2022-10-06T07:08:39.391Z,13.00
2022-10-06T07:11:41.449Z,11.75
2022-10-06T07:15:05.742Z,13.00
2022-10-06T07:18:36.656Z,11.75
2022-10-06T07:21:59.356Z,9.75
2022-10-06T07:25:08.361Z,10.00
2022-10-06T07:28:17.244Z,10.75
2022-10-06T07:31:19.960Z,11.00
2022-10-06T07:34:23.465Z,10.50
2022-10-06T07:37:26.037Z,10.75
2022-10-06T07:40:28.740Z,10.00
2022-10-06T07:43:31.004Z,9.75
2022-10-06T07:46:34.763Z,11.00
2022-10-06T07:49:56.163Z,8.25
2022-10-06T07:53:08.620Z,10.00
2022-10-06T07:56:15.851Z,10.00
2022-10-06T07:59:23.077Z,9.75
2022-10-06T08:02:30.186Z,10.00
2022-10-06T08:05:35.279Z,10.75
2022-10-06T08:08:37.929Z,10.00
2022-10-06T08:11:40.636Z,10.00
2022-10-06T08:14:42.860Z,10.00
2022-10-06T08:17:45.432Z,10.75
2022-10-06T08:20:47.613Z,9.75
2022-10-06T08:23:51.107Z,10.25
2022-10-06T08:26:53.244Z,9.75
2022-10-06T08:29:55.985Z,9.00
2022-10-06T08:32:58.504Z,9.00
2022-10-06T08:36:28.311Z,10.00
2022-10-06T08:39:32.933Z,9.00
2022-10-06T08:43:02.378Z,8.25
2022-10-06T08:46:04.808Z,7.25
2022-10-06T08:49:18.115Z,8.00
2022-10-06T08:52:34.271Z,10.25
2022-10-06T08:55:47.836Z,9.50
2022-10-06T08:59:04.186Z,9.25
2022-10-06T09:02:32.438Z,7.75
2022-10-06T09:05:35.050Z,9.00
2022-10-06T09:08:54.106Z,10.25
2022-10-06T09:12:06.831Z,8.00
2022-10-06T09:15:15.009Z,9.75
2022-10-06T09:18:20.076Z,13.00
2022-10-06T09:21:39.302Z,10.25
2022-10-06T09:24:49.507Z,10.00
2022-10-06T09:27:58.619Z,10.00
2022-10-06T09:31:04.138Z,9.00
2022-10-06T09:34:45.651Z,11.00
2022-10-06T09:38:08.150Z,10.00
2022-10-06T09:41:12.083Z,9.50
2022-10-06T09:44:25.300Z,10.00
2022-10-06T09:47:34.758Z,11.33
2022-10-06T09:50:36.802Z,11.00
2022-10-06T09:53:39.704Z,10.00
2022-10-06T09:56:43.254Z,9.33
2022-10-06T09:59:46.989Z,11.33
2022-10-06T10:03:05.742Z,9.00
2022-10-06T10:06:09.136Z,11.33
2022-10-06T10:09:21.326Z,8.67
2022-10-06T10:12:29.917Z,11.33
2022-10-06T10:15:54.450Z,10.33
2022-10-06T10:18:57.182Z,11.00
2022-10-06T10:22:00.117Z,10.33
2022-10-06T10:25:21.459Z,11.00
2022-10-06T10:28:42.040Z,9.33
2022-10-06T10:32:21.660Z,10.00
2022-10-06T10:35:30.944Z,8.33
2022-10-06T10:38:40.997Z,10.00
2022-10-06T10:41:47.912Z,8.00
2022-10-06T10:44:57.730Z,10.00
2022-10-06T10:48:13.737Z,9.33
2022-10-06T10:51:25.110Z,10.00
2022-10-06T10:54:53.303Z,9.00
2022-10-06T10:57:59.510Z,9.33
2022-10-06T11:01:26.263Z,8.00
2022-10-06T11:04:28.709Z,8.33
2022-10-06T11:07:55.792Z,8.67
2022-10-06T11:11:00.683Z,7.00
2022-10-06T11:14:08.389Z,8.50
2022-10-06T11:17:25.088Z,7.33
2022-10-06T11:20:50.831Z,7.00
2022-10-06T11:24:20.472Z,7.00
2022-10-06T11:28:02.052Z,7.67
2022-10-06T11:31:23.193Z,6.00
2022-10-06T11:34:25.742Z,6.00
2022-10-06T11:37:41.008Z,6.33
2022-10-06T11:41:09.900Z,6.00
2022-10-06T11:44:15.854Z,6.33
2022-10-06T11:47:34.988Z,6.00
2022-10-06T11:50:41.851Z,5.00
2022-10-06T11:53:44.915Z,6.00
2022-10-06T11:56:48.377Z,5.33
2022-10-06T11:59:55.277Z,2.33
2022-10-06T12:03:35.848Z,5.00
2022-10-06T12:06:46.938Z,5.00
2022-10-06T12:09:52.299Z,6.33
2022-10-06T12:13:31.808Z,6.00
2022-10-06T12:20:49.624Z,5.00
2022-10-06T12:24:24.549Z,6.00
2022-10-06T12:27:53.684Z,6.00
2022-10-06T12:31:14.569Z,5.00
2022-10-06T12:35:03.353Z,6.00
2022-10-06T12:38:26.567Z,6.67
2022-10-06T12:42:05.977Z,7.00
2022-10-06T12:45:16.866Z,5.00
2022-10-06T12:48:28.261Z,8.67
2022-10-06T12:51:42.140Z,7.67
2022-10-06T12:54:58.935Z,7.00
2022-10-06T12:58:01.841Z,6.67
2022-10-06T13:01:12.262Z,7.00
2022-10-06T13:04:41.310Z,6.33
2022-10-06T13:08:03.205Z,7.00
2022-10-06T13:11:28.098Z,6.00
2022-10-06T13:14:30.104Z,6.00
2022-10-06T13:17:32.323Z,5.67
2022-10-06T13:20:40.117Z,6.00
2022-10-06T13:23:43.252Z,7.00
2022-10-06T13:26:45.846Z,6.00
2022-10-06T13:29:48.387Z,7.00
2022-10-06T13:32:54.466Z,6.33
2022-10-06T13:35:58.019Z,6.33
2022-10-06T13:39:00.610Z,7.00
2022-10-06T13:42:08.316Z,7.00
2022-10-06T13:45:14.461Z,7.00
2022-10-06T13:48:20.827Z,6.00
2022-10-06T13:51:25.750Z,6.33
2022-10-06T13:55:01.380Z,7.00
2022-10-06T13:58:06.813Z,7.00
2022-10-06T14:01:12.269Z,7.00
2022-10-06T14:04:17.121Z,7.00
2022-10-06T14:07:19.335Z,8.00
2022-10-06T14:13:32.897Z,5.00
2022-10-06T14:16:34.987Z,7.00
2022-10-06T14:19:40.699Z,5.00
2022-10-06T14:22:42.738Z,7.00
2022-10-06T14:25:44.964Z,5.00
2022-10-06T14:28:53.022Z,6.00
2022-10-06T14:31:55.293Z,4.00
2022-10-06T14:34:57.338Z,5.00
2022-10-06T14:37:59.703Z,4.00
2022-10-06T14:41:02.994Z,4.67
2022-10-06T14:44:08.829Z,5.00
2022-10-06T14:47:11.062Z,5.00
2022-10-06T14:50:13.538Z,4.00
2022-10-06T14:53:17.176Z,5.00
2022-10-06T14:56:19.780Z,5.33
2022-10-06T14:59:21.926Z,5.00
2022-10-06T15:02:24.173Z,4.33
2022-10-06T15:05:26.436Z,5.00
2022-10-06T15:08:30.955Z,5.00
2022-10-06T15:11:33.474Z,4.00
2022-10-06T15:14:39.745Z,4.00
2022-10-06T15:17:42.354Z,3.00
2022-10-06T15:20:47.460Z,4.00
2022-10-06T15:23:55.579Z,4.00
2022-10-06T15:27:19.186Z,3.00
2022-10-06T15:30:23.302Z,3.50
2022-10-06T15:33:38.606Z,3.00
2022-10-06T15:36:43.761Z,4.00
2022-10-06T15:39:46.866Z,3.75
2022-10-06T15:42:50.071Z,2.00
2022-10-06T15:45:55.451Z,4.25
2022-10-06T15:49:01.088Z,2.00
2022-10-06T15:52:05.060Z,4.75
2022-10-06T15:55:10.549Z,4.00
2022-10-06T15:58:12.942Z,3.25
2022-10-06T16:01:34.909Z,4.25
2022-10-06T16:04:38.820Z,5.00
2022-10-06T16:07:40.838Z,4.25
2022-10-06T16:10:49.672Z,5.00
2022-10-06T16:13:52.411Z,4.00
2022-10-06T16:20:15.246Z,4.00
2022-10-06T16:23:17.616Z,3.00
2022-10-06T16:26:20.464Z,4.00
2022-10-06T16:29:22.805Z,3.50
2022-10-06T16:32:24.903Z,3.75
2022-10-06T16:35:27.221Z,3.25
2022-10-06T16:38:29.231Z,3.00
2022-10-06T16:41:31.528Z,4.00
2022-10-06T16:44:33.879Z,4.00
2022-10-06T16:47:36.009Z,4.50
2022-10-06T16:50:37.978Z,5.00
2022-10-06T16:53:45.919Z,4.00
2022-10-06T16:56:52.095Z,4.25
2022-10-06T16:59:54.461Z,3.25
2022-10-06T17:02:56.577Z,4.00
2022-10-06T17:06:06.213Z,4.25
2022-10-06T17:09:14.251Z,5.75
2022-10-06T17:12:16.638Z,5.00
2022-10-06T17:15:18.951Z,4.25
2022-10-06T17:18:21.345Z,4.75
2022-10-06T17:21:44.422Z,5.50
2022-10-06T17:24:46.155Z,5.00
2022-10-06T17:27:48.511Z,6.00
2022-10-06T17:30:59.155Z,6.00
2022-10-06T17:34:12.188Z,5.50
2022-10-06T17:37:14.713Z,7.00
2022-10-06T17:40:16.792Z,7.50
2022-10-06T17:43:20.760Z,5.25
2022-10-06T17:46:23.164Z,6.25
2022-10-06T17:49:27.140Z,1.75
2022-10-06T17:52:30.503Z,6.00
2022-10-06T17:55:36.108Z,7.25
2022-10-06T17:58:39.973Z,8.00
2022-10-06T18:01:44.404Z,5.25
2022-10-06T18:04:49.934Z,5.00
2022-10-06T18:07:52.275Z,7.25
2022-10-06T18:11:13.019Z,7.00
2022-10-06T18:14:17.804Z,7.00
2022-10-06T18:17:20.603Z,8.50
2022-10-06T18:20:23.040Z,7.50
2022-10-06T18:23:25.943Z,7.00
2022-10-06T18:26:28.321Z,7.75
2022-10-06T18:29:35.448Z,7.75
2022-10-06T18:34:46.795Z,9.75
2022-10-06T18:36:12.212Z,7.75
2022-10-06T18:39:14.882Z,10.00
2022-10-06T18:42:16.907Z,9.00
2022-10-06T18:45:39.524Z,10.00
2022-10-06T18:49:00.199Z,14.25
2022-10-06T18:52:02.471Z,26.00
2022-10-06T18:55:04.975Z,21.25
2022-10-06T18:58:07.678Z,14.00
2022-10-06T19:01:10.802Z,17.50
2022-10-06T19:04:15.323Z,17.25
2022-10-06T19:07:17.315Z,24.00
2022-10-06T19:10:19.606Z,24.25
2022-10-06T19:13:22.512Z,7.00
2022-10-06T19:16:25.074Z,21.50
2022-10-06T19:19:28.141Z,23.25
2022-10-06T19:22:31.263Z,13.25
2022-10-06T19:25:33.277Z,18.50
2022-10-06T19:28:36.517Z,21.25
2022-10-06T19:31:41.886Z,19.50
2022-10-06T19:34:44.893Z,21.50
2022-10-06T19:37:47.295Z,27.25
2022-10-06T19:40:49.941Z,30.00
2022-10-06T19:43:53.147Z,30.00
2022-10-06T19:46:55.812Z,27.50
2022-10-06T19:50:02.055Z,35.00
2022-10-06T19:53:06.307Z,34.33
2022-10-06T19:56:08.553Z,29.67
2022-10-06T19:59:18.423Z,29.00
2022-10-06T20:02:20.523Z,26.00
2022-10-06T20:05:23.027Z,25.75
2022-10-06T20:08:25.103Z,23.25
2022-10-06T20:11:27.683Z,26.00
2022-10-06T20:14:29.893Z,25.00
2022-10-06T20:17:32.146Z,24.00
2022-10-06T20:20:34.231Z,24.00
2022-10-06T20:23:36.572Z,24.50
2022-10-06T20:26:41.108Z,23.50
2022-10-06T20:29:43.615Z,23.25
2022-10-06T20:32:45.727Z,21.00
2022-10-06T20:35:47.947Z,19.00
2022-10-06T20:39:08.602Z,17.25
2022-10-06T20:42:15.222Z,17.25
2022-10-06T20:45:17.626Z,17.75
2022-10-06T20:48:20.181Z,16.25
2022-10-06T20:51:27.536Z,18.75
2022-10-06T20:54:34.754Z,18.00
2022-10-06T20:57:37.172Z,16.00
2022-10-06T21:00:39.510Z,18.75
2022-10-06T21:03:54.678Z,19.50
2022-10-06T21:06:57.277Z,18.50
2022-10-06T21:09:59.361Z,22.00
2022-10-06T21:13:01.668Z,22.25
2022-10-06T21:16:04.554Z,18.75
2022-10-06T21:19:09.181Z,23.25
2022-10-06T21:22:11.342Z,22.00
2022-10-06T21:25:13.978Z,14.67
2022-10-06T21:28:16.139Z,23.00
2022-10-06T21:31:21.062Z,22.33
2022-10-06T21:34:23.076Z,19.67
2022-10-06T21:37:26.590Z,22.67
2022-10-06T21:40:28.622Z,21.67
2022-10-06T21:43:30.862Z,20.33
2022-10-06T21:46:34.341Z,22.00
2022-10-06T21:49:36.654Z,14.33
2022-10-06T21:52:38.661Z,19.00
2022-10-06T21:55:40.923Z,22.67
2022-10-06T21:58:51.253Z,17.33
2022-10-06T22:01:53.707Z,20.67
2022-10-06T22:04:55.783Z,22.67
2022-10-06T22:07:58.058Z,23.67
2022-10-06T22:11:15.019Z,21.67
2022-10-06T22:14:18.841Z,22.00
2022-10-06T22:17:20.949Z,21.00
2022-10-06T22:20:23.380Z,21.67
2022-10-06T22:23:25.384Z,22.67
2022-10-06T22:26:29.195Z,22.00
2022-10-06T22:29:31.272Z,18.00
2022-10-06T22:32:33.527Z,20.33
2022-10-06T22:35:35.530Z,21.67
2022-10-06T22:38:38.302Z,20.00
2022-10-06T22:41:40.611Z,20.00
2022-10-06T22:44:42.876Z,22.00
2022-10-06T22:47:45.344Z,20.33
2022-10-06T22:50:49.190Z,17.33
2022-10-06T22:53:58.180Z,20.00
2022-10-06T22:57:00.669Z,20.67
2022-10-06T23:00:03.073Z,9.67
2022-10-06T23:03:07.289Z,17.33
2022-10-06T23:06:12.344Z,16.00
2022-10-06T23:09:14.689Z,18.33
2022-10-06T23:12:16.805Z,13.00
2022-10-06T23:15:19.107Z,18.67
2022-10-06T23:18:21.140Z,16.67
2022-10-06T23:21:27.417Z,16.33
2022-10-06T23:24:29.694Z,17.33
2022-10-06T23:27:32.022Z,17.00
2022-10-06T23:30:35.956Z,19.00
2022-10-06T23:33:38.880Z,19.00
2022-10-06T23:36:40.894Z,18.00
2022-10-06T23:39:43.234Z,16.33
2022-10-06T23:42:45.289Z,17.00
2022-10-06T23:45:47.908Z,20.00
2022-10-06T23:48:49.998Z,17.00
2022-10-06T23:51:52.573Z,17.00
2022-10-06T23:54:54.561Z,18.67
2022-10-06T23:57:56.842Z,16.67
